Terminal Aerodrome Forecast
Issued by NWS

Home | Current Version | Previous Version | Text Only | Print | Product List | Glossary On
Versions: 1 2 3 4 5 6 7 8 9 10 11 12 13 14 15
000
FTUS42 KMLB 291100
TAFLEE
TAF
KLEE 291138Z 2912/3012 VRB03KT P6SM FEW010 SCT040
      TEMPO 2912/2913 1SM BR BKN010
     FM291500 25007KT P6SM SCT040 SCT250
     FM300100 26003KT P6SM SCT040 SCT080 BKN250
     FM300500 27003KT 5SM BR VCSH SCT003 BKN010 OVC030=

USA.gov is the U.S. government's official web portal to all federal, state and local government web resources and services.